createdAt,value
2023-02-12T00:02:18.461Z,101127.34
2023-02-12T00:04:47.608Z,101121.97
2023-02-12T00:07:14.782Z,101125.31
2023-02-12T00:09:41.708Z,101128.69
2023-02-12T00:12:09.361Z,101138.25
2023-02-12T00:14:39.321Z,101136.75
2023-02-12T00:17:06.476Z,101134.44
2023-02-12T00:19:33.358Z,101143.44
2023-02-12T00:22:00.583Z,101141.78
2023-02-12T00:24:27.974Z,101145.44
2023-02-12T00:26:55.200Z,101145.44
2023-02-12T00:29:22.209Z,101157.94
2023-02-12T00:31:49.450Z,101158.25
2023-02-12T00:34:16.351Z,101145.63
2023-02-12T00:36:43.640Z,101143.63
2023-02-12T00:39:10.694Z,101143.03
2023-02-12T00:41:38.067Z,101135.91
2023-02-12T00:44:05.067Z,101155.13
2023-02-12T00:46:35.275Z,101155.91
2023-02-12T00:49:02.235Z,101146.63
2023-02-12T00:51:31.806Z,101148.13
2023-02-12T00:54:01.710Z,101146.16
2023-02-12T00:56:31.375Z,101156.84
2023-02-12T00:58:58.305Z,101148.59
2023-02-12T01:01:25.619Z,101150.13
2023-02-12T01:03:52.649Z,101159.91
2023-02-12T01:06:20.012Z,101162.19
2023-02-12T01:08:50.028Z,101157.47
2023-02-12T01:11:17.610Z,101151.66
2023-02-12T01:13:44.549Z,101164.50
2023-02-12T01:16:14.892Z,101163.59
2023-02-12T01:18:41.931Z,101182.06
2023-02-12T01:21:10.833Z,101182.66
2023-02-12T01:23:37.933Z,101177.28
2023-02-12T01:26:05.223Z,101190.38
2023-02-12T01:28:32.189Z,101179.84
2023-02-12T01:30:59.553Z,101186.41
2023-02-12T01:33:27.132Z,101196.19
2023-02-12T01:35:55.551Z,101201.69
2023-02-12T01:38:22.847Z,101199.28
2023-02-12T01:40:50.007Z,101201.38
2023-02-12T01:43:16.874Z,101195.56
2023-02-12T01:45:46.976Z,101209.88
2023-02-12T01:48:14.992Z,101203.47
2023-02-12T01:50:43.950Z,101206.66
2023-02-12T01:53:19.993Z,101204.38
2023-02-12T01:55:48.663Z,101195.06
2023-02-12T01:58:16.055Z,101191.22
2023-02-12T02:00:43.644Z,101186.97
2023-02-12T02:03:10.758Z,101188.47
2023-02-12T02:05:56.660Z,101192.63
2023-02-12T02:08:23.843Z,101193.38
2023-02-12T02:10:51.267Z,101186.38
2023-02-12T02:13:37.680Z,101182.78
2023-02-12T02:16:14.563Z,101187.13
2023-02-12T02:18:52.259Z,101185.84
2023-02-12T02:21:31.370Z,101178.63
2023-02-12T02:24:10.396Z,101191.09
2023-02-12T02:26:40.618Z,101191.53
2023-02-12T02:29:10.664Z,101206.13
2023-02-12T02:31:50.172Z,101206.44
2023-02-12T02:34:36.926Z,101197.31
2023-02-12T02:37:16.425Z,101203.72
2023-02-12T02:39:59.752Z,101200.06
2023-02-12T02:42:33.042Z,101199.66
2023-02-12T02:45:04.240Z,101199.00
2023-02-12T02:47:38.274Z,101200.63
2023-02-12T02:50:14.290Z,101213.66
2023-02-12T02:52:47.760Z,101203.91
2023-02-12T02:55:17.721Z,101213.78
2023-02-12T02:57:48.034Z,101212.38
2023-02-12T03:00:18.536Z,101215.91
2023-02-12T03:02:50.269Z,101214.59
2023-02-12T03:05:22.753Z,101228.00
2023-02-12T03:07:57.293Z,101230.66
2023-02-12T03:10:26.636Z,101237.47
2023-02-12T03:13:00.848Z,101239.06
2023-02-12T03:15:33.250Z,101244.97
2023-02-12T03:18:03.941Z,101239.69
2023-02-12T03:20:33.458Z,101255.34
2023-02-12T03:23:09.951Z,101243.56
2023-02-12T03:26:03.135Z,101257.38
2023-02-12T03:28:32.080Z,101264.84
2023-02-12T03:31:02.009Z,101266.41
2023-02-12T03:33:39.876Z,101253.28
2023-02-12T03:36:25.571Z,101253.16
2023-02-12T03:38:54.393Z,101271.53
2023-02-12T03:41:44.252Z,101270.31
2023-02-12T03:44:30.214Z,101274.28
2023-02-12T03:47:16.211Z,101275.34
2023-02-12T03:49:51.243Z,101279.13
2023-02-12T03:52:18.110Z,101279.69
2023-02-12T03:54:48.468Z,101286.38
2023-02-12T03:57:25.158Z,101296.94
2023-02-12T03:59:52.478Z,101297.69
2023-02-12T04:02:19.672Z,101298.78
2023-02-12T04:04:47.238Z,101300.50
2023-02-12T04:07:14.540Z,101312.28
2023-02-12T04:09:41.750Z,101311.50
2023-02-12T04:12:15.386Z,101314.25
2023-02-12T04:14:42.534Z,101309.66
2023-02-12T04:17:22.182Z,101305.34
2023-02-12T04:19:49.749Z,101311.63
2023-02-12T04:22:45.432Z,101312.41
2023-02-12T04:25:29.601Z,101314.69
2023-02-12T04:28:19.537Z,101323.38
2023-02-12T04:30:58.972Z,101327.31
2023-02-12T04:33:28.773Z,101327.91
2023-02-12T04:36:09.306Z,101330.66
2023-02-12T04:38:38.894Z,101333.97
2023-02-12T04:41:06.997Z,101327.28
2023-02-12T04:43:36.876Z,101325.94
2023-02-12T04:46:05.289Z,101321.34
2023-02-12T04:48:32.266Z,101328.59
2023-02-12T04:50:59.395Z,101333.47
2023-02-12T04:53:26.356Z,101337.75
2023-02-12T04:55:53.826Z,101344.44
2023-02-12T04:58:20.851Z,101341.59
2023-02-12T05:00:48.081Z,101346.63
2023-02-12T05:03:14.958Z,101359.25
2023-02-12T05:05:42.258Z,101351.47
2023-02-12T05:08:11.966Z,101364.41
2023-02-12T05:10:39.183Z,101363.34
2023-02-12T05:13:06.176Z,101362.44
2023-02-12T05:15:33.374Z,101370.22
2023-02-12T05:18:00.251Z,101374.19
2023-02-12T05:20:27.413Z,101371.34
2023-02-12T05:22:54.369Z,101377.16
2023-02-12T05:25:23.761Z,101381.00
2023-02-12T05:27:50.618Z,101391.19
2023-02-12T05:30:17.819Z,101388.78
2023-02-12T05:32:44.688Z,101391.19
2023-02-12T05:35:11.953Z,101399.31
2023-02-12T05:37:38.828Z,101391.75
2023-02-12T05:40:06.400Z,101388.34
2023-02-12T05:42:33.241Z,101394.94
2023-02-12T05:45:02.964Z,101400.53
2023-02-12T05:47:30.208Z,101406.47
2023-02-12T05:49:57.450Z,101399.75
2023-02-12T05:52:24.331Z,101411.97
2023-02-12T05:54:51.486Z,101414.28
2023-02-12T05:57:18.339Z,101427.56
2023-02-12T05:59:45.634Z,101424.38
2023-02-12T06:02:12.638Z,101425.47
2023-02-12T06:04:39.866Z,101429.28
2023-02-12T06:07:07.389Z,101427.00
2023-02-12T06:09:35.226Z,101434.69
2023-02-12T06:12:02.112Z,101431.50
2023-02-12T06:14:31.799Z,101437.19
2023-02-12T06:16:59.034Z,101437.53
2023-02-12T06:19:26.359Z,101441.81
2023-02-12T06:21:55.413Z,101458.19
2023-02-12T06:24:22.739Z,101455.75
2023-02-12T06:26:50.956Z,101454.22
2023-02-12T06:29:18.841Z,101459.28
2023-02-12T06:31:45.914Z,101458.81
2023-02-12T06:34:13.847Z,101462.69
2023-02-12T06:36:41.935Z,101473.66
2023-02-12T06:39:09.159Z,101461.25
2023-02-12T06:41:36.141Z,101459.94
2023-02-12T06:44:03.727Z,101470.03
2023-02-12T06:46:31.031Z,101469.47
2023-02-12T06:48:59.267Z,101473.44
2023-02-12T06:51:27.221Z,101469.91
2023-02-12T06:53:55.676Z,101478.03
2023-02-12T06:56:24.005Z,101481.22
2023-02-12T06:58:55.835Z,101477.59
2023-02-12T07:01:24.646Z,101476.72
2023-02-12T07:03:53.364Z,101480.88
2023-02-12T07:06:20.879Z,101488.13
2023-02-12T07:08:48.531Z,101488.78
2023-02-12T07:11:15.448Z,101484.69
2023-02-12T07:13:42.778Z,101486.88
2023-02-12T07:16:14.069Z,101490.06
2023-02-12T07:18:44.353Z,101487.53
2023-02-12T07:21:12.033Z,101485.09
2023-02-12T07:23:39.616Z,101496.09
2023-02-12T07:26:07.879Z,101488.97
2023-02-12T07:28:35.340Z,101500.59
2023-02-12T07:31:11.286Z,101503.53
2023-02-12T07:33:39.269Z,101505.72
2023-02-12T07:36:07.807Z,101510.66
2023-02-12T07:38:40.020Z,101511.63
2023-02-12T07:41:10.532Z,101513.16
2023-02-12T07:43:38.634Z,101507.97
2023-02-12T07:46:08.102Z,101510.59
2023-02-12T07:48:35.393Z,101519.19
2023-02-12T07:51:10.124Z,101516.31
2023-02-12T07:53:40.196Z,101519.78
2023-02-12T07:56:11.629Z,101520.13
2023-02-12T07:58:39.289Z,101516.25
2023-02-12T08:01:12.293Z,101515.53
2023-02-12T08:03:39.636Z,101526.75
2023-02-12T08:06:10.838Z,101522.53
2023-02-12T08:08:39.029Z,101522.91
2023-02-12T08:11:07.677Z,101522.16
2023-02-12T08:13:35.535Z,101526.19
2023-02-12T08:16:03.672Z,101524.06
2023-02-12T08:18:32.174Z,101528.22
2023-02-12T08:21:05.776Z,101534.50
2023-02-12T08:23:33.334Z,101537.69
2023-02-12T08:26:13.774Z,101547.19
2023-02-12T08:28:46.523Z,101539.72
2023-02-12T08:31:15.059Z,101540.78
2023-02-12T08:33:42.407Z,101546.59
2023-02-12T08:36:10.603Z,101553.22
2023-02-12T08:38:40.419Z,101554.13
2023-02-12T08:41:08.837Z,101563.81
2023-02-12T08:43:39.521Z,101567.97
2023-02-12T08:46:09.572Z,101572.56
2023-02-12T08:48:36.984Z,101581.06
2023-02-12T08:51:24.349Z,101574.63
2023-02-12T08:53:53.011Z,101576.63
2023-02-12T08:56:20.060Z,101585.09
2023-02-12T08:58:47.301Z,101588.50
2023-02-12T09:01:16.257Z,101587.75
2023-02-12T09:03:43.946Z,101592.53
2023-02-12T09:06:11.003Z,101591.31
2023-02-12T09:08:38.861Z,101593.78
2023-02-12T09:11:16.723Z,101596.41
2023-02-12T09:13:45.276Z,101598.72
2023-02-12T09:16:12.715Z,101603.00
2023-02-12T09:18:40.304Z,101612.34
2023-02-12T09:21:12.143Z,101605.44
2023-02-12T09:23:39.732Z,101603.31
2023-02-12T09:26:07.577Z,101616.38
2023-02-12T09:28:35.337Z,101608.81
2023-02-12T09:31:09.543Z,101610.34
2023-02-12T09:33:37.030Z,101605.44
2023-02-12T09:36:04.727Z,101612.44
2023-02-12T09:38:32.638Z,101616.59
2023-02-12T09:41:09.117Z,101625.84
2023-02-12T09:43:36.308Z,101633.50
2023-02-12T09:46:29.178Z,101625.34
2023-02-12T09:49:04.647Z,101637.75
2023-02-12T09:51:32.258Z,101631.13
2023-02-12T09:54:13.401Z,101632.97
2023-02-12T09:56:42.549Z,101626.28
2023-02-12T09:59:13.295Z,101628.28
2023-02-12T10:01:40.829Z,101638.44
2023-02-12T10:04:08.440Z,101645.16
2023-02-12T10:06:44.129Z,101633.31
2023-02-12T10:09:21.007Z,101642.38
2023-02-12T10:11:54.841Z,101638.44
2023-02-12T10:14:51.584Z,101639.00
2023-02-12T10:17:23.739Z,101643.63
2023-02-12T10:20:01.159Z,101635.38
2023-02-12T10:22:56.809Z,101633.44
2023-02-12T10:25:31.773Z,101629.34
2023-02-12T10:28:02.443Z,101623.81
2023-02-12T10:30:53.076Z,101622.13
2023-02-12T10:33:26.870Z,101624.84
2023-02-12T10:36:02.796Z,101626.28
2023-02-12T10:38:33.803Z,101637.28
2023-02-12T10:41:02.850Z,101636.84
2023-02-12T10:43:30.806Z,101635.56
2023-02-12T10:45:58.643Z,101626.06
2023-02-12T10:48:46.207Z,101621.72
2023-02-12T10:51:34.178Z,101631.84
2023-02-12T10:54:21.471Z,101628.28
2023-02-12T10:56:49.875Z,101623.44
2023-02-12T10:59:24.208Z,101620.41
2023-02-12T11:01:52.116Z,101617.75
2023-02-12T11:04:21.357Z,101619.16
2023-02-12T11:06:58.375Z,101619.47
2023-02-12T11:09:30.312Z,101612.97
2023-02-12T11:12:02.373Z,101608.44
2023-02-12T11:14:30.986Z,101612.91
2023-02-12T11:17:00.656Z,101607.66
2023-02-12T11:19:30.799Z,101609.50
2023-02-12T11:22:11.278Z,101599.78
2023-02-12T11:24:38.755Z,101607.00
2023-02-12T11:27:18.358Z,101610.06
2023-02-12T11:29:49.791Z,101605.78
2023-02-12T11:32:19.352Z,101613.25
2023-02-12T11:35:06.843Z,101610.53
2023-02-12T11:37:38.343Z,101616.34
2023-02-12T11:40:07.530Z,101606.72
2023-02-12T11:42:37.581Z,101611.50
2023-02-12T11:45:07.475Z,101606.53
2023-02-12T11:47:36.847Z,101606.44
2023-02-12T11:50:12.833Z,101615.72
2023-02-12T11:52:43.437Z,101612.66
2023-02-12T11:55:20.343Z,101610.84
2023-02-12T11:57:50.136Z,101611.97
2023-02-12T12:00:18.431Z,101603.88
2023-02-12T12:03:10.025Z,101609.97
2023-02-12T12:05:39.734Z,101603.81
2023-02-12T12:08:20.970Z,101605.19
2023-02-12T12:10:51.760Z,101614.50
2023-02-12T12:13:26.022Z,101600.72
2023-02-12T12:16:19.214Z,101591.88
2023-02-12T12:19:15.490Z,101604.69
2023-02-12T12:21:42.764Z,101600.50
2023-02-12T12:24:11.207Z,101594.28
2023-02-12T12:26:40.587Z,101602.72
2023-02-12T12:29:18.665Z,101600.19
2023-02-12T12:31:56.948Z,101589.41
2023-02-12T12:34:28.389Z,101583.19
2023-02-12T12:36:56.951Z,101582.94
2023-02-12T12:39:43.563Z,101585.53
2023-02-12T12:42:13.918Z,101582.81
2023-02-12T12:44:55.122Z,101579.59
2023-02-12T12:47:55.801Z,101576.81
2023-02-12T12:50:26.745Z,101583.28
2023-02-12T12:53:00.273Z,101576.00
2023-02-12T12:55:46.616Z,101579.06
2023-02-12T12:58:26.080Z,101584.44
2023-02-12T13:01:13.283Z,101575.06
2023-02-12T13:03:44.157Z,101583.47
2023-02-12T13:06:27.473Z,101584.94
2023-02-12T13:09:04.151Z,101586.84
2023-02-12T13:11:39.459Z,101584.53
2023-02-12T13:14:29.170Z,101582.53
2023-02-12T13:17:08.916Z,101587.75
2023-02-12T13:19:36.351Z,101592.94
2023-02-12T13:22:09.171Z,101591.06
2023-02-12T13:24:44.326Z,101594.31
2023-02-12T13:27:15.212Z,101588.28
2023-02-12T13:29:50.184Z,101587.63
2023-02-12T13:32:27.835Z,101587.72
2023-02-12T13:34:57.886Z,101588.22
2023-02-12T13:37:35.667Z,101582.69
2023-02-12T13:40:07.730Z,101593.13
2023-02-12T13:42:51.270Z,101595.56
2023-02-12T13:45:18.868Z,101596.94
2023-02-12T13:48:05.915Z,101592.94
2023-02-12T13:50:38.287Z,101588.88
2023-02-12T13:53:14.238Z,101585.38
2023-02-12T13:55:50.095Z,101585.06
2023-02-12T13:58:39.619Z,101580.31
2023-02-12T14:01:18.917Z,101583.63
2023-02-12T14:03:50.309Z,101588.31
2023-02-12T14:06:20.764Z,101587.16
2023-02-12T14:08:51.677Z,101580.22
2023-02-12T14:11:21.841Z,101574.13
2023-02-12T14:14:00.808Z,101587.97
2023-02-12T14:16:31.525Z,101586.59
2023-02-12T14:19:30.092Z,101578.78
2023-02-12T14:21:58.348Z,101576.53
2023-02-12T14:24:37.885Z,101570.72
2023-02-12T14:27:27.511Z,101581.78
2023-02-12T14:30:07.680Z,101580.69
2023-02-12T14:32:59.601Z,101574.88
2023-02-12T14:35:48.586Z,101584.56
2023-02-12T14:38:16.132Z,101579.81
2023-02-12T14:40:48.606Z,101585.78
2023-02-12T14:43:34.284Z,101590.13
2023-02-12T14:46:21.902Z,101586.72
2023-02-12T14:48:52.393Z,101592.41
2023-02-12T14:51:23.506Z,101598.38
2023-02-12T14:53:54.051Z,101595.97
2023-02-12T14:56:25.810Z,101600.84
2023-02-12T14:58:55.267Z,101597.47
2023-02-12T15:01:44.149Z,101607.16
2023-02-12T15:04:17.154Z,101610.97
2023-02-12T15:06:51.162Z,101602.97
2023-02-12T15:09:35.500Z,101604.50
2023-02-12T15:12:23.538Z,101605.13
2023-02-12T15:14:57.051Z,101603.75
2023-02-12T15:17:28.596Z,101601.13
2023-02-12T15:20:01.550Z,101600.97
2023-02-12T15:22:37.051Z,101608.16
2023-02-12T15:25:23.365Z,101599.72
2023-02-12T15:27:56.522Z,101605.38
2023-02-12T15:30:28.945Z,101611.19
2023-02-12T15:33:03.024Z,101609.47
2023-02-12T15:35:34.264Z,101609.16
2023-02-12T15:38:03.254Z,101617.25
2023-02-12T15:40:32.250Z,101605.63
2023-02-12T15:43:02.272Z,101608.84
2023-02-12T15:45:31.677Z,101613.41
2023-02-12T15:48:22.915Z,101614.00
2023-02-12T15:50:56.310Z,101614.00
2023-02-12T15:53:25.314Z,101618.56
2023-02-12T15:55:52.997Z,101620.56
2023-02-12T15:58:30.255Z,101628.66
2023-02-12T16:01:04.460Z,101617.75
2023-02-12T16:03:38.601Z,101619.41
2023-02-12T16:06:17.398Z,101629.06
2023-02-12T16:08:53.774Z,101620.00
2023-02-12T16:11:22.489Z,101628.28
2023-02-12T16:13:52.497Z,101629.97
2023-02-12T16:16:23.694Z,101633.31
2023-02-12T16:19:14.564Z,101633.59
2023-02-12T16:21:45.151Z,101634.19
2023-02-12T16:24:23.358Z,101640.81
2023-02-12T16:26:51.332Z,101639.09
2023-02-12T16:29:19.405Z,101646.72
2023-02-12T16:31:54.210Z,101641.78
2023-02-12T16:34:35.006Z,101648.94
2023-02-12T16:37:23.891Z,101646.66
2023-02-12T16:39:55.357Z,101644.47
2023-02-12T16:42:27.783Z,101639.88
2023-02-12T16:44:59.151Z,101653.44
2023-02-12T16:47:28.857Z,101652.34
2023-02-12T16:50:02.829Z,101658.44
2023-02-12T16:52:35.279Z,101657.47
2023-02-12T16:55:03.424Z,101658.06
2023-02-12T16:57:34.807Z,101655.53
2023-02-12T17:00:05.714Z,101657.53
2023-02-12T17:02:34.527Z,101662.56
2023-02-12T17:05:06.259Z,101662.81
2023-02-12T17:07:34.851Z,101662.50
2023-02-12T17:10:03.554Z,101663.72
2023-02-12T17:12:33.521Z,101669.09
2023-02-12T17:15:04.233Z,101665.47
2023-02-12T17:17:32.714Z,101671.88
2023-02-12T17:20:01.624Z,101671.97
2023-02-12T17:22:37.857Z,101669.78
2023-02-12T17:25:05.966Z,101674.53
2023-02-12T17:27:33.503Z,101676.16
2023-02-12T17:30:02.289Z,101686.56
2023-02-12T17:32:31.563Z,101684.88
2023-02-12T17:34:59.980Z,101682.56
2023-02-12T17:37:30.209Z,101684.66
2023-02-12T17:39:58.305Z,101678.19
2023-02-12T17:42:27.782Z,101686.56
2023-02-12T17:44:57.508Z,101685.88
2023-02-12T17:47:26.057Z,101681.72
2023-02-12T17:49:57.892Z,101679.41
2023-02-12T17:52:26.032Z,101674.78
2023-02-12T17:54:56.766Z,101683.38
2023-02-12T17:57:25.411Z,101677.97
2023-02-12T17:59:59.269Z,101682.72
2023-02-12T18:02:32.800Z,101679.22
2023-02-12T18:05:02.177Z,101688.53
2023-02-12T18:07:32.823Z,101691.75
2023-02-12T18:10:05.972Z,101687.56
2023-02-12T18:12:34.932Z,101695.81
2023-02-12T18:15:08.473Z,101702.88
2023-02-12T18:17:37.306Z,101700.88
2023-02-12T18:20:05.886Z,101701.97
2023-02-12T18:22:35.864Z,101701.63
2023-02-12T18:25:04.721Z,101700.97
2023-02-12T18:27:33.588Z,101706.47
2023-02-12T18:30:03.406Z,101712.31
2023-02-12T18:32:31.589Z,101715.41
2023-02-12T18:34:59.728Z,101718.94
2023-02-12T18:37:33.576Z,101717.81
2023-02-12T18:40:03.097Z,101717.16
2023-02-12T18:42:33.321Z,101707.69
2023-02-12T18:45:03.044Z,101711.53
2023-02-12T18:47:31.327Z,101709.97
2023-02-12T18:50:03.306Z,101711.97
2023-02-12T18:52:32.623Z,101706.94
2023-02-12T18:55:01.110Z,101709.69
2023-02-12T18:57:30.330Z,101703.72
2023-02-12T19:00:01.605Z,101701.53
2023-02-12T19:02:30.442Z,101703.06
2023-02-12T19:04:58.899Z,101698.44
2023-02-12T19:07:28.162Z,101714.19
2023-02-12T19:09:57.727Z,101702.09
2023-02-12T19:12:27.361Z,101695.38
2023-02-12T19:14:55.757Z,101699.75
2023-02-12T19:17:23.989Z,101707.25
2023-02-12T19:19:53.935Z,101712.66
2023-02-12T19:22:22.189Z,101712.31
2023-02-12T19:24:51.944Z,101716.59
2023-02-12T19:27:19.977Z,101712.22
2023-02-12T19:29:48.629Z,101708.69
2023-02-12T19:32:17.857Z,101711.53
2023-02-12T19:34:46.868Z,101709.13
2023-02-12T19:37:20.372Z,101706.94
2023-02-12T19:39:48.754Z,101709.13
2023-02-12T19:42:18.182Z,101702.72
2023-02-12T19:44:54.221Z,101704.41
2023-02-12T19:47:24.820Z,101695.47
2023-02-12T19:49:55.753Z,101699.13
2023-02-12T19:52:25.515Z,101698.22
2023-02-12T19:54:56.718Z,101706.94
2023-02-12T19:57:26.181Z,101713.09
2023-02-12T19:59:56.106Z,101705.41
2023-02-12T20:02:25.606Z,101705.72
2023-02-12T20:04:54.302Z,101709.13
2023-02-12T20:07:26.476Z,101709.13
2023-02-12T20:09:55.186Z,101700.22
2023-02-12T20:12:23.443Z,101707.81
2023-02-12T20:14:57.263Z,101714.84
2023-02-12T20:17:26.785Z,101716.41
2023-02-12T20:19:57.733Z,101719.03
2023-02-12T20:22:28.869Z,101720.34
2023-02-12T20:24:57.782Z,101721.34
2023-02-12T20:27:25.871Z,101725.31
2023-02-12T20:29:59.967Z,101721.91
2023-02-12T20:32:28.358Z,101729.16
2023-02-12T20:34:57.450Z,101722.75
2023-02-12T20:37:26.640Z,101725.19
2023-02-12T20:39:55.115Z,101741.81
2023-02-12T20:42:31.611Z,101738.94
2023-02-12T20:45:01.828Z,101734.22
2023-02-12T20:47:29.883Z,101744.66
2023-02-12T20:49:58.590Z,101741.03
2023-02-12T20:52:29.139Z,101741.25
2023-02-12T20:54:59.429Z,101746.88
2023-02-12T20:57:32.034Z,101752.03
2023-02-12T21:00:06.155Z,101752.03
2023-02-12T21:02:35.407Z,101746.53
2023-02-12T21:05:03.823Z,101747.19
2023-02-12T21:07:34.833Z,101747.31
2023-02-12T21:10:06.401Z,101753.66
2023-02-12T21:12:36.835Z,101750.59
2023-02-12T21:15:05.550Z,101744.22
2023-02-12T21:17:34.207Z,101736.41
2023-02-12T21:20:04.887Z,101730.91
2023-02-12T21:22:32.840Z,101727.94
2023-02-12T21:25:04.083Z,101726.50
2023-02-12T21:27:31.796Z,101731.44
2023-02-12T21:29:59.863Z,101727.28
2023-02-12T21:32:31.194Z,101729.00
2023-02-12T21:34:59.549Z,101722.88
2023-02-12T21:37:27.449Z,101726.69
2023-02-12T21:39:55.112Z,101724.97
2023-02-12T21:42:22.666Z,101712.50
2023-02-12T21:44:50.732Z,101720.13
2023-02-12T21:47:17.998Z,101720.13
2023-02-12T21:49:45.687Z,101712.72
2023-02-12T21:52:15.232Z,101715.91
2023-02-12T21:54:45.185Z,101705.91
2023-02-12T21:57:18.303Z,101706.00
2023-02-12T21:59:46.147Z,101716.03
2023-02-12T22:02:13.336Z,101711.88
2023-02-12T22:04:40.785Z,101712.84
2023-02-12T22:07:08.286Z,101713.88
2023-02-12T22:09:35.726Z,101714.41
2023-02-12T22:12:02.578Z,101714.06
2023-02-12T22:14:29.908Z,101712.50
2023-02-12T22:16:56.892Z,101718.78
2023-02-12T22:19:24.526Z,101720.13
2023-02-12T22:21:51.918Z,101716.72
2023-02-12T22:24:19.798Z,101723.84
2023-02-12T22:26:46.706Z,101718.69
2023-02-12T22:29:14.990Z,101721.09
2023-02-12T22:31:43.104Z,101724.19
2023-02-12T22:34:12.459Z,101725.06
2023-02-12T22:36:39.937Z,101721.44
2023-02-12T22:39:10.058Z,101714.41
2023-02-12T22:41:37.974Z,101725.41
2023-02-12T22:44:05.528Z,101727.47
2023-02-12T22:46:33.231Z,101725.63
2023-02-12T22:49:00.491Z,101733.19
2023-02-12T22:51:29.159Z,101735.50
2023-02-12T22:53:56.610Z,101739.13
2023-02-12T22:56:24.142Z,101741.09
2023-02-12T22:58:55.807Z,101740.84
2023-02-12T23:01:23.606Z,101739.78
2023-02-12T23:03:51.613Z,101739.78
2023-02-12T23:06:19.535Z,101739.00
2023-02-12T23:08:49.458Z,101741.84
2023-02-12T23:11:16.786Z,101736.09
2023-02-12T23:13:44.195Z,101740.16
2023-02-12T23:16:13.502Z,101750.28
2023-02-12T23:18:40.949Z,101753.81
2023-02-12T23:21:08.440Z,101746.84
2023-02-12T23:23:35.849Z,101748.75
2023-02-12T23:26:02.808Z,101744.00
2023-02-12T23:28:30.371Z,101743.47
2023-02-12T23:30:58.139Z,101740.38
2023-02-12T23:33:25.718Z,101744.66
2023-02-12T23:35:52.613Z,101746.19
2023-02-12T23:38:19.946Z,101748.72
2023-02-12T23:40:49.148Z,101735.41
2023-02-12T23:43:21.564Z,101747.59
2023-02-12T23:45:48.809Z,101746.06
2023-02-12T23:48:16.077Z,101735.25
2023-02-12T23:50:45.336Z,101742.81
2023-02-12T23:53:12.701Z,101741.38
2023-02-12T23:55:40.018Z,101738.53
2023-02-12T23:58:07.719Z,101732.41
